createdAt,value
2018-01-12T00:01:14.658Z,14.10
2018-01-12T00:03:40.966Z,10.38
2018-01-12T00:06:07.723Z,11.43
2018-01-12T00:08:33.969Z,11.40
2018-01-12T00:11:00.257Z,13.10
2018-01-12T00:13:26.634Z,12.10
2018-01-12T00:15:52.937Z,12.05
2018-01-12T00:18:19.141Z,12.20
2018-01-12T00:20:46.862Z,12.75
2018-01-12T00:23:13.806Z,12.30
2018-01-12T00:25:42.026Z,12.40
2018-01-12T00:28:08.285Z,12.13
2018-01-12T00:30:35.865Z,11.98
2018-01-12T00:33:02.147Z,12.00
2018-01-12T00:35:28.380Z,12.07
2018-01-12T00:37:54.903Z,10.95
2018-01-12T00:40:22.253Z,11.25
2018-01-12T00:42:49.867Z,11.15
2018-01-12T00:45:16.452Z,12.13
2018-01-12T00:47:43.962Z,11.30
2018-01-12T00:50:10.988Z,12.63
2018-01-12T00:52:38.342Z,14.25
2018-01-12T00:55:05.410Z,13.55
2018-01-12T00:57:32.252Z,13.05
2018-01-12T00:59:58.763Z,12.50
2018-01-12T01:02:26.015Z,10.88
2018-01-12T01:04:52.781Z,10.73
2018-01-12T01:07:19.013Z,10.85
2018-01-12T01:09:45.862Z,11.10
2018-01-12T01:12:12.506Z,11.15
2018-01-12T01:14:38.754Z,11.82
2018-01-12T01:17:06.661Z,11.90
2018-01-12T01:19:33.656Z,11.73
2018-01-12T01:22:00.964Z,11.07
2018-01-12T01:24:28.951Z,11.35
2018-01-12T01:26:55.938Z,12.20
2018-01-12T01:29:23.292Z,13.15
2018-01-12T01:31:51.492Z,14.43
2018-01-12T01:34:17.707Z,13.35
2018-01-12T01:36:44.869Z,12.02
2018-01-12T01:39:11.969Z,13.65
2018-01-12T01:41:38.830Z,12.02
2018-01-12T01:44:06.278Z,13.15
2018-01-12T01:46:33.238Z,11.90
2018-01-12T01:48:59.917Z,12.00
2018-01-12T01:51:26.673Z,12.30
2018-01-12T01:53:53.210Z,11.18
2018-01-12T01:56:20.316Z,11.00
2018-01-12T01:58:47.177Z,10.93
2018-01-12T02:01:13.645Z,10.10
2018-01-12T02:03:41.315Z,10.98
2018-01-12T02:06:07.794Z,10.07
2018-01-12T02:08:34.519Z,10.50
2018-01-12T02:11:02.198Z,9.93
2018-01-12T02:13:29.258Z,9.77
2018-01-12T02:15:57.116Z,10.82
2018-01-12T02:18:24.384Z,9.38
2018-01-12T02:20:50.998Z,10.50
2018-01-12T02:23:17.844Z,9.18
2018-01-12T02:25:44.052Z,10.35
2018-01-12T02:28:10.903Z,10.82
2018-01-12T02:30:37.517Z,8.48
2018-01-12T02:33:04.522Z,9.10
2018-01-12T02:35:31.404Z,10.18
2018-01-12T02:37:59.345Z,9.98
2018-01-12T02:40:25.883Z,9.20
2018-01-12T02:42:54.411Z,9.45
2018-01-12T02:45:21.453Z,9.40
2018-01-12T02:47:47.692Z,10.80
2018-01-12T02:50:13.907Z,10.10
2018-01-12T02:52:40.137Z,9.80
2018-01-12T02:55:06.342Z,9.15
2018-01-12T02:57:33.800Z,9.43
2018-01-12T03:00:02.670Z,9.90
2018-01-12T03:02:29.445Z,9.70
2018-01-12T03:04:55.677Z,10.77
2018-01-12T03:07:22.480Z,9.35
2018-01-12T03:09:49.195Z,10.32
2018-01-12T03:12:16.085Z,8.70
2018-01-12T03:14:43.023Z,8.70
2018-01-12T03:17:10.666Z,8.13
2018-01-12T03:19:38.163Z,7.90
2018-01-12T03:22:05.258Z,9.02
2018-01-12T03:24:31.560Z,8.10
2018-01-12T03:26:57.772Z,8.20
2018-01-12T03:31:57.240Z,7.35
2018-01-12T03:34:23.514Z,8.43
2018-01-12T03:36:50.458Z,7.95
2018-01-12T03:39:17.989Z,8.30
2018-01-12T03:41:45.464Z,8.52
2018-01-12T03:44:12.526Z,9.25
2018-01-12T03:46:38.767Z,8.95
2018-01-12T03:49:05.059Z,8.70
2018-01-12T03:51:32.132Z,8.80
2018-01-12T03:53:59.498Z,8.77
2018-01-12T03:56:26.287Z,9.38
2018-01-12T03:58:52.514Z,7.55
2018-01-12T04:01:19.367Z,8.60
2018-01-12T04:03:46.355Z,10.32
2018-01-12T04:06:13.443Z,9.45
2018-01-12T04:08:40.686Z,8.50
2018-01-12T04:11:09.563Z,7.65
2018-01-12T04:13:36.600Z,9.15
2018-01-12T04:16:02.789Z,8.05
2018-01-12T04:18:30.179Z,7.70
2018-01-12T04:20:57.310Z,8.82
2018-01-12T04:23:23.539Z,8.70
2018-01-12T04:25:49.930Z,8.73
2018-01-12T04:28:16.975Z,8.38
2018-01-12T04:30:44.401Z,8.38
2018-01-12T04:33:11.054Z,8.93
2018-01-12T04:35:38.594Z,7.10
2018-01-12T04:38:05.590Z,8.75
2018-01-12T04:40:32.560Z,7.72
2018-01-12T04:42:58.761Z,8.38
2018-01-12T04:45:26.664Z,7.78
2018-01-12T04:47:53.126Z,8.25
2018-01-12T04:50:20.112Z,8.95
2018-01-12T04:52:47.061Z,7.15
2018-01-12T04:55:14.066Z,7.12
2018-01-12T04:57:40.729Z,8.38
2018-01-12T05:00:07.721Z,8.88
2018-01-12T05:02:33.932Z,7.35
2018-01-12T05:05:02.165Z,8.90
2018-01-12T05:07:28.352Z,8.90
2018-01-12T05:09:55.248Z,7.97
2018-01-12T05:12:21.453Z,8.25
2018-01-12T05:14:48.295Z,7.72
2018-01-12T05:17:14.545Z,8.02
2018-01-12T05:19:41.773Z,8.20
2018-01-12T05:22:09.556Z,8.38
2018-01-12T05:24:36.514Z,7.95
2018-01-12T05:27:03.515Z,8.52
2018-01-12T05:29:30.270Z,8.43
2018-01-12T05:31:57.656Z,9.48
2018-01-12T05:34:24.771Z,10.70
2018-01-12T05:36:50.990Z,10.68
2018-01-12T05:39:17.249Z,9.20
2018-01-12T05:41:43.842Z,6.72
2018-01-12T05:44:10.061Z,7.72
2018-01-12T05:46:36.314Z,12.27
2018-01-12T05:49:02.587Z,9.60
2018-01-12T05:51:29.563Z,11.35
2018-01-12T05:53:55.990Z,8.88
2018-01-12T05:56:22.212Z,8.90
2018-01-12T05:58:48.481Z,8.57
2018-01-12T06:01:27.245Z,10.82
2018-01-12T06:07:00.141Z,9.10
2018-01-12T06:09:27.669Z,10.13
2018-01-12T06:11:54.270Z,9.05
2018-01-12T06:14:21.411Z,7.95
2018-01-12T06:16:48.225Z,8.65
2018-01-12T06:19:15.336Z,9.25
2018-01-12T06:21:42.574Z,9.48
2018-01-12T06:24:09.931Z,11.15
2018-01-12T06:26:36.166Z,9.20
2018-01-12T06:29:02.835Z,10.40
2018-01-12T06:31:30.796Z,9.90
2018-01-12T06:33:57.853Z,9.15
2018-01-12T06:36:24.495Z,10.50
2018-01-12T06:38:52.337Z,9.05
2018-01-12T06:41:19.511Z,9.60
2018-01-12T06:43:47.148Z,14.77
2018-01-12T06:46:13.890Z,11.20
2018-01-12T06:48:40.657Z,12.70
2018-01-12T06:51:07.663Z,13.35
2018-01-12T06:53:33.880Z,13.52
2018-01-12T06:56:00.700Z,10.63
2018-01-12T06:58:26.917Z,11.80
2018-01-12T07:00:53.312Z,8.88
2018-01-12T07:03:20.511Z,8.98
2018-01-12T07:05:47.338Z,9.52
2018-01-12T07:08:13.599Z,11.45
2018-01-12T07:10:40.365Z,9.07
2018-01-12T07:13:06.565Z,10.73
2018-01-12T07:15:32.786Z,10.15
2018-01-12T07:17:59.633Z,9.82
2018-01-12T07:20:38.018Z,10.23
2018-01-12T07:23:17.030Z,9.15
2018-01-12T07:25:44.671Z,9.77
2018-01-12T07:28:10.909Z,12.43
2018-01-12T07:30:37.644Z,11.50
2018-01-12T07:33:03.881Z,12.25
2018-01-12T07:35:31.090Z,8.45
2018-01-12T07:37:57.516Z,12.52
2018-01-12T07:40:23.773Z,11.68
2018-01-12T07:42:50.890Z,10.93
2018-01-12T07:45:17.696Z,10.55
2018-01-12T07:47:44.896Z,9.20
2018-01-12T07:50:12.840Z,8.18
2018-01-12T07:52:45.703Z,9.30
2018-01-12T07:55:12.212Z,9.07
2018-01-12T07:57:41.034Z,8.60
2018-01-12T08:00:07.338Z,8.00
2018-01-12T08:02:40.290Z,9.10
2018-01-12T08:05:06.508Z,8.38
2018-01-12T08:07:33.161Z,9.52
2018-01-12T08:10:00.358Z,9.50
2018-01-12T08:12:28.535Z,9.77
2018-01-12T08:14:56.521Z,10.05
2018-01-12T08:17:23.787Z,9.23
2018-01-12T08:19:50.103Z,10.05
2018-01-12T08:22:16.877Z,10.77
2018-01-12T08:24:43.120Z,10.60
2018-01-12T08:27:10.105Z,10.27
2018-01-12T08:29:37.146Z,9.45
2018-01-12T08:32:03.998Z,9.63
2018-01-12T08:34:30.277Z,10.65
2018-01-12T08:36:56.507Z,9.95
2018-01-12T08:39:22.741Z,10.98
2018-01-12T08:41:49.550Z,10.35
2018-01-12T08:44:16.611Z,8.57
2018-01-12T08:46:43.141Z,9.15
2018-01-12T08:49:09.376Z,12.00
2018-01-12T08:51:35.584Z,12.40
2018-01-12T08:54:01.929Z,11.55
2018-01-12T08:56:28.492Z,12.07
2018-01-12T08:58:55.377Z,13.93
2018-01-12T09:01:21.833Z,13.88
2018-01-12T09:03:48.820Z,12.13
2018-01-12T09:06:15.993Z,13.60
2018-01-12T09:08:43.281Z,13.35
2018-01-12T09:11:09.556Z,12.13
2018-01-12T09:13:49.829Z,14.85
2018-01-12T09:16:26.602Z,11.70
2018-01-12T09:19:06.189Z,12.52
2018-01-12T09:21:36.052Z,14.13
2018-01-12T09:24:08.694Z,12.30
2018-01-12T09:26:35.690Z,12.45
2018-01-12T09:29:02.535Z,12.32
2018-01-12T09:31:38.798Z,12.35
2018-01-12T09:34:18.114Z,12.30
2018-01-12T09:36:45.062Z,12.88
2018-01-12T09:39:11.977Z,12.88
2018-01-12T09:41:38.190Z,12.52
2018-01-12T09:44:05.055Z,13.20
2018-01-12T09:46:32.061Z,11.12
2018-01-12T09:48:58.322Z,11.38
2018-01-12T09:51:24.683Z,14.32
2018-01-12T09:53:51.730Z,13.77
2018-01-12T09:56:17.920Z,14.70
2018-01-12T09:58:44.182Z,11.30
2018-01-12T10:01:20.853Z,12.48
2018-01-12T10:03:48.543Z,12.02
2018-01-12T10:06:14.861Z,11.77
2018-01-12T10:08:41.221Z,12.30
2018-01-12T10:11:07.591Z,13.25
2018-01-12T10:13:35.239Z,11.90
2018-01-12T10:16:01.468Z,12.37
2018-01-12T10:18:33.721Z,13.10
2018-01-12T10:21:11.671Z,12.70
2018-01-12T10:23:37.898Z,12.40
2018-01-12T10:26:04.543Z,11.30
2018-01-12T10:28:32.234Z,13.15
2018-01-12T10:30:58.446Z,12.88
2018-01-12T10:36:30.574Z,12.88
2018-01-12T10:38:57.875Z,13.75
2018-01-12T10:41:30.160Z,13.57
2018-01-12T10:43:57.015Z,12.20
2018-01-12T10:46:36.206Z,9.90
2018-01-12T10:49:07.643Z,12.50
2018-01-12T10:51:37.740Z,11.25
2018-01-12T10:54:04.482Z,11.02
2018-01-12T10:56:30.715Z,12.88
2018-01-12T10:58:57.164Z,12.60
2018-01-12T11:01:24.281Z,12.43
2018-01-12T11:03:50.534Z,11.98
2018-01-12T11:06:17.513Z,12.88
2018-01-12T11:08:43.744Z,12.77
2018-01-12T11:11:10.931Z,10.93
2018-01-12T11:13:38.569Z,12.48
2018-01-12T11:16:06.087Z,11.35
2018-01-12T11:18:33.209Z,13.32
2018-01-12T11:21:00.200Z,10.57
2018-01-12T11:23:26.415Z,11.43
2018-01-12T11:25:54.033Z,12.65
2018-01-12T11:28:22.893Z,12.75
2018-01-12T11:30:50.079Z,11.85
2018-01-12T11:33:16.408Z,11.50
2018-01-12T11:35:43.091Z,13.02
2018-01-12T11:38:09.303Z,11.50
2018-01-12T11:40:36.259Z,12.18
2018-01-12T11:43:03.235Z,11.60
2018-01-12T11:45:30.578Z,11.80
2018-01-12T11:47:57.821Z,11.60
2018-01-12T11:50:25.177Z,10.95
2018-01-12T11:52:52.202Z,11.82
2018-01-12T11:55:19.141Z,13.50
2018-01-12T11:57:46.265Z,11.80
2018-01-12T12:00:13.530Z,12.00
2018-01-12T12:02:41.312Z,12.23
2018-01-12T12:05:08.961Z,12.52
2018-01-12T12:07:36.283Z,11.80
2018-01-12T12:10:02.668Z,11.77
2018-01-12T12:12:28.906Z,10.85
2018-01-12T12:14:55.150Z,11.45
2018-01-12T12:17:21.352Z,11.73
2018-01-12T12:19:47.850Z,10.73
2018-01-12T12:22:15.565Z,9.98
2018-01-12T12:24:41.856Z,10.00
2018-01-12T12:27:08.930Z,10.18
2018-01-12T12:29:35.769Z,11.25
2018-01-12T12:32:02.265Z,9.18
2018-01-12T12:34:29.287Z,10.50
2018-01-12T12:36:55.589Z,10.30
2018-01-12T12:39:21.838Z,11.02
2018-01-12T12:41:48.075Z,9.98
2018-01-12T12:44:14.768Z,9.88
2018-01-12T12:46:40.991Z,10.15
2018-01-12T12:49:07.399Z,10.80
2018-01-12T12:51:35.003Z,9.88
2018-01-12T12:54:01.615Z,9.82
2018-01-12T12:56:28.730Z,10.63
2018-01-12T12:58:55.609Z,11.07
2018-01-12T13:01:24.034Z,11.70
2018-01-12T13:03:51.661Z,11.63
2018-01-12T13:06:19.312Z,11.12
2018-01-12T13:08:46.622Z,10.35
2018-01-12T13:11:12.939Z,9.85
2018-01-12T13:13:39.854Z,11.02
2018-01-12T13:16:07.098Z,11.15
2018-01-12T13:18:34.715Z,11.40
2018-01-12T13:21:01.456Z,10.20
2018-01-12T13:23:28.201Z,10.10
2018-01-12T13:25:54.407Z,11.98
2018-01-12T13:28:20.637Z,13.13
2018-01-12T13:30:46.974Z,12.48
2018-01-12T13:33:13.419Z,11.32
2018-01-12T13:35:41.410Z,12.88
2018-01-12T13:38:08.959Z,10.73
2018-01-12T13:40:35.490Z,11.35
2018-01-12T13:43:02.240Z,10.35
2018-01-12T13:45:29.305Z,10.90
2018-01-12T13:47:56.049Z,11.73
2018-01-12T13:50:22.492Z,12.18
2018-01-12T13:52:49.354Z,10.65
2018-01-12T13:55:16.611Z,11.12
2018-01-12T13:57:42.832Z,12.15
2018-01-12T14:00:09.073Z,11.23
2018-01-12T14:02:35.284Z,12.05
2018-01-12T14:05:01.482Z,10.95
2018-01-12T14:07:28.203Z,11.82
2018-01-12T14:09:55.267Z,11.55
2018-01-12T14:12:22.315Z,11.77
2018-01-12T14:14:48.537Z,12.75
2018-01-12T14:17:16.402Z,12.00
2018-01-12T14:19:43.350Z,12.68
2018-01-12T14:22:09.608Z,10.00
2018-01-12T14:24:36.504Z,11.55
2018-01-12T14:27:03.467Z,12.43
2018-01-12T14:29:30.985Z,12.50
2018-01-12T14:31:57.411Z,13.40
2018-01-12T14:34:24.395Z,12.57
2018-01-12T14:36:51.780Z,12.93
2018-01-12T14:39:18.777Z,10.50
2018-01-12T14:41:46.776Z,12.77
2018-01-12T14:44:13.847Z,10.98
2018-01-12T14:46:40.846Z,12.25
2018-01-12T14:49:07.815Z,12.00
2018-01-12T14:51:34.562Z,10.40
2018-01-12T14:54:00.787Z,11.57
2018-01-12T14:56:27.519Z,11.57
2018-01-12T14:58:54.585Z,12.77
2018-01-12T15:01:21.867Z,13.57
2018-01-12T15:03:48.166Z,14.98
2018-01-12T15:06:14.568Z,12.18
2018-01-12T15:08:41.530Z,12.88
2018-01-12T15:11:08.276Z,11.93
2018-01-12T15:13:35.019Z,13.30
2018-01-12T15:16:02.236Z,13.55
2018-01-12T15:18:29.029Z,11.90
2018-01-12T15:20:55.735Z,13.20
2018-01-12T15:23:22.488Z,12.52
2018-01-12T15:25:49.838Z,13.18
2018-01-12T15:28:16.302Z,13.20
2018-01-12T15:30:43.078Z,12.48
2018-01-12T15:33:10.062Z,13.65
2018-01-12T15:35:36.273Z,10.85
2018-01-12T15:38:03.219Z,12.93
2018-01-12T15:40:31.174Z,12.40
2018-01-12T15:42:58.805Z,11.60
2018-01-12T15:45:25.058Z,12.05
2018-01-12T15:47:53.223Z,10.55
2018-01-12T15:50:20.782Z,13.82
2018-01-12T15:52:48.109Z,13.13
2018-01-12T15:55:14.322Z,11.98
2018-01-12T15:57:40.952Z,13.10
2018-01-12T16:00:07.277Z,20.15
2018-01-12T16:02:34.337Z,18.10
2018-01-12T16:05:01.264Z,16.17
2018-01-12T16:07:27.499Z,15.10
2018-01-12T16:09:54.592Z,14.85
2018-01-12T16:12:21.450Z,14.80
2018-01-12T16:14:48.370Z,13.18
2018-01-12T16:17:14.962Z,16.20
2018-01-12T16:19:42.111Z,14.00
2018-01-12T16:22:08.539Z,14.45
2018-01-12T16:24:35.647Z,13.30
2018-01-12T16:27:01.954Z,17.70
2018-01-12T16:29:28.464Z,14.90
2018-01-12T16:31:54.938Z,14.38
2018-01-12T16:34:21.484Z,16.15
2018-01-12T16:36:49.275Z,17.37
2018-01-12T16:39:17.472Z,15.70
2018-01-12T16:41:42.942Z,13.75
2018-01-12T16:44:09.947Z,15.30
2018-01-12T16:46:36.669Z,17.55
2018-01-12T16:49:03.129Z,19.40
2018-01-12T16:51:30.132Z,16.90
2018-01-12T16:53:56.919Z,17.33
2018-01-12T16:56:23.349Z,16.85
2018-01-12T16:58:50.955Z,15.05
2018-01-12T17:01:17.166Z,16.92
2018-01-12T17:03:44.223Z,17.17
2018-01-12T17:06:12.160Z,13.07
2018-01-12T17:08:39.822Z,17.15
2018-01-12T17:11:06.199Z,12.85
2018-01-12T17:13:33.084Z,14.82
2018-01-12T17:15:59.727Z,14.30
2018-01-12T17:18:27.189Z,13.18
2018-01-12T17:20:54.215Z,15.35
2018-01-12T17:23:20.974Z,16.60
2018-01-12T17:25:47.182Z,19.65
2018-01-12T17:28:13.446Z,20.73
2018-01-12T17:30:39.718Z,20.52
2018-01-12T17:33:06.347Z,20.95
2018-01-12T17:35:33.046Z,17.45
2018-01-12T17:38:00.727Z,18.27
2018-01-12T17:40:28.318Z,16.48
2018-01-12T17:42:54.619Z,18.02
2018-01-12T17:45:21.785Z,16.55
2018-01-12T17:47:49.870Z,15.98
2018-01-12T17:50:16.269Z,16.87
2018-01-12T17:52:43.367Z,17.80
2018-01-12T17:55:09.897Z,14.23
2018-01-12T17:57:36.919Z,16.83
2018-01-12T18:00:03.262Z,16.02
2018-01-12T18:02:29.587Z,17.98
2018-01-12T18:04:55.783Z,17.45
2018-01-12T18:07:22.978Z,19.15
2018-01-12T18:09:49.300Z,18.23
2018-01-12T18:12:15.507Z,18.73
2018-01-12T18:14:41.756Z,21.62
2018-01-12T18:17:08.145Z,20.77
2018-01-12T18:19:35.400Z,17.80
2018-01-12T18:22:02.568Z,18.52
2018-01-12T18:24:28.796Z,21.35
2018-01-12T18:26:56.069Z,23.35
2018-01-12T18:29:22.269Z,20.08
2018-01-12T18:31:48.787Z,21.48
2018-01-12T18:34:16.077Z,20.73
2018-01-12T18:36:43.358Z,16.70
2018-01-12T18:39:10.414Z,24.75
2018-01-12T18:41:36.629Z,19.12
2018-01-12T18:44:02.890Z,19.65
2018-01-12T18:46:29.217Z,19.17
2018-01-12T18:48:55.525Z,17.85
2018-01-12T18:51:22.523Z,19.08
2018-01-12T18:53:49.953Z,19.98
2018-01-12T18:56:16.251Z,19.95
2018-01-12T18:58:42.509Z,18.50
2018-01-12T19:01:08.731Z,21.50
2018-01-12T19:03:35.574Z,21.87
2018-01-12T19:06:01.822Z,26.83
2018-01-12T19:08:29.031Z,28.92
2018-01-12T19:10:56.210Z,23.75
2018-01-12T19:13:22.714Z,25.17
2018-01-12T19:15:50.047Z,25.25
2018-01-12T19:18:17.774Z,30.23
2018-01-12T19:20:44.734Z,30.77
2018-01-12T19:23:10.944Z,28.98
2018-01-12T19:25:37.919Z,27.17
2018-01-12T19:28:04.157Z,27.55
2018-01-12T19:30:30.349Z,25.50
2018-01-12T19:32:57.541Z,25.17
2018-01-12T19:35:24.353Z,26.52
2018-01-12T19:37:51.259Z,21.92
2018-01-12T19:40:17.539Z,23.05
2018-01-12T19:42:44.271Z,25.33
2018-01-12T19:45:10.868Z,25.27
2018-01-12T19:47:38.311Z,27.17
2018-01-12T19:50:07.227Z,25.00
2018-01-12T19:52:34.664Z,26.10
2018-01-12T19:55:02.165Z,26.45
2018-01-12T19:57:29.372Z,25.67
2018-01-12T19:59:56.271Z,25.45
2018-01-12T20:02:23.226Z,24.75
2018-01-12T20:04:50.481Z,25.05
2018-01-12T20:07:18.207Z,24.52
2018-01-12T20:09:45.072Z,25.27
2018-01-12T20:12:12.751Z,24.12
2018-01-12T20:14:39.644Z,23.10
2018-01-12T20:17:07.436Z,22.67
2018-01-12T20:19:34.726Z,22.27
2018-01-12T20:22:01.432Z,23.70
2018-01-12T20:24:29.263Z,23.65
2018-01-12T20:26:57.039Z,23.80
2018-01-12T20:29:23.551Z,19.27
2018-01-12T20:31:50.241Z,22.08
2018-01-12T20:34:17.533Z,26.45
2018-01-12T20:36:44.094Z,27.95
2018-01-12T20:39:11.741Z,24.45
2018-01-12T20:41:39.753Z,23.38
2018-01-12T20:44:07.016Z,22.52
2018-01-12T20:46:33.371Z,22.65
2018-01-12T20:49:01.478Z,24.85
2018-01-12T20:51:29.178Z,30.45
2018-01-12T20:53:56.696Z,27.35
2018-01-12T20:56:23.825Z,23.02
2018-01-12T20:58:51.429Z,20.50
2018-01-12T21:01:18.994Z,17.80
2018-01-12T21:03:45.308Z,18.05
2018-01-12T21:06:11.792Z,19.08
2018-01-12T21:08:38.136Z,16.37
2018-01-12T21:11:04.974Z,14.50
2018-01-12T21:13:31.972Z,17.50
2018-01-12T21:15:59.463Z,15.88
2018-01-12T21:18:28.008Z,14.90
2018-01-12T21:20:55.382Z,15.43
2018-01-12T21:23:21.681Z,15.55
2018-01-12T21:25:48.672Z,20.55
2018-01-12T21:28:14.927Z,18.65
2018-01-12T21:30:42.534Z,19.55
2018-01-12T21:33:09.924Z,37.90
2018-01-12T21:35:37.357Z,26.77
2018-01-12T21:38:03.617Z,22.10
2018-01-12T21:40:30.685Z,25.92
2018-01-12T21:42:57.996Z,23.10
2018-01-12T21:45:25.725Z,22.02
2018-01-12T21:47:52.342Z,17.02
2018-01-12T21:50:19.502Z,14.27
2018-01-12T21:52:47.595Z,18.48
2018-01-12T21:55:14.781Z,17.92
2018-01-12T21:57:42.165Z,16.87
2018-01-12T22:00:09.332Z,19.83
2018-01-12T22:02:36.333Z,18.58
2018-01-12T22:05:04.479Z,16.40
2018-01-12T22:07:31.697Z,19.83
2018-01-12T22:09:58.867Z,17.98
2018-01-12T22:12:25.205Z,18.40
2018-01-12T22:14:58.731Z,16.10
2018-01-12T22:17:25.545Z,18.48
2018-01-12T22:19:53.339Z,16.55
2018-01-12T22:22:21.160Z,15.32
2018-01-12T22:24:47.926Z,15.65
2018-01-12T22:27:15.881Z,13.73
2018-01-12T22:29:42.628Z,16.08
2018-01-12T22:32:08.894Z,16.83
2018-01-12T22:34:35.126Z,17.10
2018-01-12T22:37:02.239Z,15.60
2018-01-12T22:39:29.620Z,16.37
2018-01-12T22:41:56.113Z,13.07
2018-01-12T22:44:23.804Z,13.95
2018-01-12T22:46:51.825Z,15.60
2018-01-12T22:49:19.038Z,15.48
2018-01-12T22:51:46.287Z,17.67
2018-01-12T22:54:14.010Z,14.87
2018-01-12T22:56:40.961Z,15.63
2018-01-12T22:59:07.275Z,16.48
2018-01-12T23:01:35.983Z,19.60
2018-01-12T23:13:47.463Z,17.55
2018-01-12T23:16:15.501Z,17.85
2018-01-12T23:18:43.186Z,17.37
2018-01-12T23:21:10.144Z,17.08
2018-01-12T23:23:36.733Z,19.62
2018-01-12T23:26:03.658Z,18.83
2018-01-12T23:28:30.837Z,18.58
2018-01-12T23:30:58.455Z,16.30
2018-01-12T23:33:25.654Z,18.02
2018-01-12T23:35:51.918Z,17.50
2018-01-12T23:40:51.886Z,16.73
2018-01-12T23:43:19.033Z,16.30
2018-01-12T23:45:45.848Z,17.75
2018-01-12T23:48:12.655Z,15.77
2018-01-12T23:50:39.636Z,16.65
2018-01-12T23:53:05.881Z,14.70
2018-01-12T23:55:33.343Z,14.60
2018-01-12T23:58:00.822Z,12.20
